Time,TemperatureF,DewpointF,PressureIn,WindDirection,WindDirectionDegrees,WindSpeedMPH,WindSpeedGustMPH,Humidity,HourlyPrecipIn,Conditions,Clouds,dailyrainin,SoftwareType,DateUTC
2013-01-03 00:02:00,41.0,10.0,-100.00,SW,231,2.0,3.0,28,-99.99,,,-99.99,,2013-01-03 08:02:00,
2013-01-03 00:11:00,40.0,10.0,-100.00,West,266,1.0,4.0,29,-99.99,,,-99.99,,2013-01-03 08:11:00,
2013-01-03 00:22:00,40.0,9.0,-100.00,WNW,291,2.0,5.0,27,-99.99,,,-99.99,,2013-01-03 08:22:00,
2013-01-03 00:32:00,40.0,10.0,-100.00,WSW,255,2.0,5.0,28,-99.99,,,-99.99,,2013-01-03 08:32:00,
2013-01-03 00:42:00,44.0,7.0,-100.00,SE,142,3.0,10.0,21,-99.99,,,-99.99,,2013-01-03 08:42:00,
2013-01-03 00:52:00,45.0,6.0,-100.00,South,190,3.0,7.0,20,-99.99,,,-99.99,,2013-01-03 08:52:00,
2013-01-03 01:02:00,47.0,3.0,-100.00,WSW,256,3.0,8.0,16,-99.99,,,-99.99,,2013-01-03 09:02:00,
2013-01-03 01:11:00,45.0,6.0,-100.00,NW,323,4.0,7.0,20,-99.99,,,-99.99,,2013-01-03 09:11:00,
2013-01-03 01:22:00,45.0,4.0,-100.00,North,354,3.0,9.0,18,-99.99,,,-99.99,,2013-01-03 09:22:00,
2013-01-03 01:33:00,43.0,7.0,-100.00,North,5,2.0,6.0,22,-99.99,,,-99.99,,2013-01-03 09:33:00,
2013-01-03 01:42:00,43.0,7.0,-100.00,North,5,2.0,6.0,22,-99.99,,,-99.99,,2013-01-03 09:42:00,
2013-01-03 01:52:00,43.0,7.0,-100.00,NNE,24,2.0,5.0,22,-99.99,,,-99.99,,2013-01-03 09:52:00,
2013-01-03 02:02:00,41.0,7.0,-100.00,SW,232,3.0,6.0,24,-99.99,,,-99.99,,2013-01-03 10:02:00,
2013-01-03 02:12:00,41.0,7.0,-100.00,NW,311,2.0,7.0,24,-99.99,,,-99.99,,2013-01-03 10:12:00,
2013-01-03 02:22:00,41.0,6.0,-100.00,West,260,2.0,5.0,23,-99.99,,,-99.99,,2013-01-03 10:22:00,
2013-01-03 02:32:00,40.0,7.0,-100.00,SW,220,2.0,5.0,25,-99.99,,,-99.99,,2013-01-03 10:32:00,
2013-01-03 02:42:00,40.0,7.0,-100.00,NW,315,2.0,4.0,25,-99.99,,,-99.99,,2013-01-03 10:42:00,
2013-01-03 02:52:00,43.0,4.0,-100.00,NW,309,4.0,6.0,19,-99.99,,,-99.99,,2013-01-03 10:52:00,
2013-01-03 03:02:00,39.0,7.0,-100.00,SSE,147,3.0,7.0,26,-99.99,,,-99.99,,2013-01-03 11:02:00,
2013-01-03 03:11:00,38.0,7.0,-100.00,SW,231,2.0,6.0,27,-99.99,,,-99.99,,2013-01-03 11:11:00,
2013-01-03 03:22:00,40.0,6.0,-100.00,NW,326,5.0,11.0,24,-99.99,,,-99.99,,2013-01-03 11:22:00,
2013-01-03 03:32:00,44.0,3.0,-100.00,North,0,4.0,16.0,18,-99.99,,,-99.99,,2013-01-03 11:32:00,
2013-01-03 03:42:00,48.0,1.0,-100.00,North,358,7.0,14.0,14,-99.99,,,-99.99,,2013-01-03 11:42:00,
2013-01-03 03:52:00,48.0,3.0,-100.00,NNE,27,9.0,19.0,15,-99.99,,,-99.99,,2013-01-03 11:52:00,
2013-01-03 04:02:00,48.0,3.0,-100.00,NNE,27,9.0,19.0,15,-99.99,,,-99.99,,2013-01-03 12:02:00,
2013-01-03 04:12:00,48.0,3.0,-100.00,North,6,7.0,23.0,15,-99.99,,,-99.99,,2013-01-03 12:12:00,
2013-01-03 04:22:00,48.0,3.0,-100.00,North,0,6.0,12.0,15,-99.99,,,-99.99,,2013-01-03 12:22:00,
2013-01-03 04:32:00,48.0,3.0,-100.00,NNW,347,4.0,7.0,15,-99.99,,,-99.99,,2013-01-03 12:32:00,
2013-01-03 04:42:00,46.0,2.0,-100.00,NW,313,2.0,5.0,16,-99.99,,,-99.99,,2013-01-03 12:42:00,
2013-01-03 04:52:00,45.0,3.0,-100.00,NNW,342,3.0,5.0,17,-99.99,,,-99.99,,2013-01-03 12:52:00,
2013-01-03 05:02:00,45.0,3.0,-100.00,NNW,342,3.0,5.0,17,-99.99,,,-99.99,,2013-01-03 13:02:00,
2013-01-03 05:12:00,44.0,2.0,-100.00,West,274,4.0,10.0,17,-99.99,,,-99.99,,2013-01-03 13:12:00,
2013-01-03 05:22:00,43.0,5.0,-100.00,ESE,119,2.0,4.0,20,-99.99,,,-99.99,,2013-01-03 13:22:00,
2013-01-03 05:32:00,43.0,4.0,-100.00,SE,126,2.0,4.0,19,-99.99,,,-99.99,,2013-01-03 13:32:00,
2013-01-03 05:42:00,43.0,5.0,-100.00,NE,47,3.0,6.0,20,-99.99,,,-99.99,,2013-01-03 13:42:00,
2013-01-03 05:52:00,40.0,5.0,-100.00,WSW,239,2.0,7.0,23,-99.99,,,-99.99,,2013-01-03 13:52:00,
2013-01-03 06:02:00,45.0,4.0,-100.00,North,353,6.0,14.0,18,-99.99,,,-99.99,,2013-01-03 14:02:00,
2013-01-03 06:12:00,46.0,4.0,-100.00,North,356,4.0,7.0,17,-99.99,,,-99.99,,2013-01-03 14:12:00,
2013-01-03 06:22:00,45.0,4.0,-100.00,North,1,5.0,11.0,18,-99.99,,,-99.99,,2013-01-03 14:22:00,
2013-01-03 06:32:00,46.0,5.0,-100.00,NNE,30,8.0,12.0,18,-99.99,,,-99.99,,2013-01-03 14:32:00,
2013-01-03 06:42:00,46.0,5.0,-100.00,NNE,30,8.0,12.0,18,-99.99,,,-99.99,,2013-01-03 14:42:00,
2013-01-03 06:53:00,46.0,4.0,-100.00,NNE,21,6.0,10.0,17,-99.99,,,-99.99,,2013-01-03 14:53:00,
2013-01-03 07:02:00,47.0,4.0,-100.00,NNE,25,6.0,9.0,17,-99.99,,,-99.99,,2013-01-03 15:02:00,
2013-01-03 07:12:00,46.0,6.0,-100.00,NE,36,8.0,13.0,19,-99.99,,,-99.99,,2013-01-03 15:12:00,
2013-01-03 07:22:00,45.0,5.0,-100.00,NNE,28,5.0,12.0,19,-99.99,,,-99.99,,2013-01-03 15:22:00,
2013-01-03 07:33:00,45.0,6.0,-100.00,North,357,4.0,7.0,20,-99.99,,,-99.99,,2013-01-03 15:33:00,
2013-01-03 07:42:00,45.0,6.0,-100.00,North,357,4.0,7.0,20,-99.99,,,-99.99,,2013-01-03 15:42:00,
2013-01-03 07:53:00,46.0,5.0,-100.00,NNE,19,4.0,6.0,18,-99.99,,,-99.99,,2013-01-03 15:53:00,
2013-01-03 08:02:00,47.0,7.0,-100.00,East,95,1.0,4.0,19,-99.99,,,-99.99,,2013-01-03 16:02:00,
2013-01-03 08:12:00,47.0,6.0,-100.00,NW,314,1.0,4.0,18,-99.99,,,-99.99,,2013-01-03 16:12:00,
2013-01-03 08:22:00,49.0,5.0,-100.00,ESE,120,3.0,6.0,16,-99.99,,,-99.99,,2013-01-03 16:22:00,
2013-01-03 08:33:00,50.0,6.0,-100.00,NE,44,9.0,15.0,16,-99.99,,,-99.99,,2013-01-03 16:33:00,
2013-01-03 08:42:00,50.0,6.0,-100.00,NE,44,9.0,15.0,16,-99.99,,,-99.99,,2013-01-03 16:42:00,
2013-01-03 08:52:00,50.0,6.0,-100.00,NE,39,13.0,22.0,16,-99.99,,,-99.99,,2013-01-03 16:52:00,
2013-01-03 09:02:00,50.0,6.0,-100.00,NE,40,13.0,24.0,16,-99.99,,,-99.99,,2013-01-03 17:02:00,
2013-01-03 09:12:00,50.0,6.0,-100.00,NE,46,18.0,26.0,16,-99.99,,,-99.99,,2013-01-03 17:12:00,
2013-01-03 09:22:00,50.0,6.0,-100.00,NE,50,16.0,26.0,16,-99.99,,,-99.99,,2013-01-03 17:22:00,
2013-01-03 09:32:00,50.0,6.0,-100.00,NE,45,17.0,26.0,16,-99.99,,,-99.99,,2013-01-03 17:32:00,
2013-01-03 09:42:00,51.0,6.0,-100.00,NE,44,18.0,35.0,16,-99.99,,,-99.99,,2013-01-03 17:42:00,
2013-01-03 09:52:00,51.0,6.0,-100.00,NE,42,18.0,29.0,16,-99.99,,,-99.99,,2013-01-03 17:52:00,
2013-01-03 10:02:00,51.0,6.0,-100.00,NE,35,16.0,29.0,16,-99.99,,,-99.99,,2013-01-03 18:02:00,
2013-01-03 10:12:00,51.0,6.0,-100.00,NE,45,18.0,30.0,16,-99.99,,,-99.99,,2013-01-03 18:12:00,
2013-01-03 10:22:00,51.0,6.0,-100.00,NE,44,16.0,28.0,16,-99.99,,,-99.99,,2013-01-03 18:22:00,
2013-01-03 10:33:00,51.0,6.0,-100.00,NE,46,16.0,30.0,16,-99.99,,,-99.99,,2013-01-03 18:33:00,
2013-01-03 10:42:00,51.0,5.0,-100.00,NE,52,19.0,29.0,15,-99.99,,,-99.99,,2013-01-03 18:42:00,
2013-01-03 10:53:00,52.0,6.0,-100.00,NE,49,15.0,24.0,15,-99.99,,,-99.99,,2013-01-03 18:53:00,
2013-01-03 11:02:00,52.0,4.0,-100.00,NE,53,14.0,24.0,14,-99.99,,,-99.99,,2013-01-03 19:02:00,
2013-01-03 11:12:00,53.0,5.0,-100.00,NE,47,11.0,20.0,14,-99.99,,,-99.99,,2013-01-03 19:12:00,
2013-01-03 11:55:00,53.0,7.0,-100.00,NE,48,18.0,27.0,15,-99.99,,,-99.99,,2013-01-03 19:55:00,
2013-01-03 12:02:00,53.0,7.0,-100.00,NE,42,19.0,29.0,15,-99.99,,,-99.99,,2013-01-03 20:02:00,
2013-01-03 12:12:00,52.0,6.0,-100.00,NE,40,18.0,29.0,15,-99.99,,,-99.99,,2013-01-03 20:12:00,
2013-01-03 12:22:00,52.0,6.0,-100.00,NE,38,20.0,29.0,15,-99.99,,,-99.99,,2013-01-03 20:22:00,
2013-01-03 12:33:00,52.0,7.0,-100.00,NE,47,17.0,24.0,16,-99.99,,,-99.99,,2013-01-03 20:33:00,
2013-01-03 12:42:00,52.0,6.0,-100.00,NNE,31,14.0,22.0,15,-99.99,,,-99.99,,2013-01-03 20:42:00,
2013-01-03 12:53:00,52.0,6.0,-100.00,NE,44,14.0,21.0,15,-99.99,,,-99.99,,2013-01-03 20:53:00,
2013-01-03 13:02:00,52.0,6.0,-100.00,ENE,58,14.0,20.0,15,-99.99,,,-99.99,,2013-01-03 21:02:00,
2013-01-03 13:12:00,53.0,7.0,-100.00,NE,56,14.0,22.0,15,-99.99,,,-99.99,,2013-01-03 21:12:00,
2013-01-03 13:22:00,53.0,7.0,-100.00,ENE,59,15.0,23.0,15,-99.99,,,-99.99,,2013-01-03 21:22:00,
2013-01-03 13:34:00,52.0,7.0,-100.00,ENE,62,12.0,20.0,16,-99.99,,,-99.99,,2013-01-03 21:34:00,
2013-01-03 13:46:00,52.0,7.0,-100.00,ENE,75,15.0,24.0,16,-99.99,,,-99.99,,2013-01-03 21:46:00,
2013-01-03 13:52:00,52.0,7.0,-100.00,ENE,77,12.0,18.0,16,-99.99,,,-99.99,,2013-01-03 21:52:00,
2013-01-03 14:02:00,52.0,6.0,-100.00,East,83,11.0,18.0,15,-99.99,,,-99.99,,2013-01-03 22:02:00,
2013-01-03 14:12:00,53.0,7.0,-100.00,NE,55,14.0,22.0,15,-99.99,,,-99.99,,2013-01-03 22:12:00,
2013-01-03 14:22:00,52.0,7.0,-100.00,ENE,75,10.0,19.0,16,-99.99,,,-99.99,,2013-01-03 22:22:00,
2013-01-03 14:32:00,51.0,6.0,-100.00,ENE,72,11.0,19.0,16,-99.99,,,-99.99,,2013-01-03 22:32:00,
2013-01-03 14:42:00,52.0,7.0,-100.00,ENE,66,10.0,15.0,16,-99.99,,,-99.99,,2013-01-03 22:42:00,
2013-01-03 14:52:00,52.0,7.0,-100.00,ENE,67,10.0,17.0,16,-99.99,,,-99.99,,2013-01-03 22:52:00,
2013-01-03 15:02:00,51.0,8.0,-100.00,ENE,78,12.0,18.0,17,-99.99,,,-99.99,,2013-01-03 23:02:00,
2013-01-03 15:12:00,51.0,8.0,-100.00,ENE,63,13.0,21.0,17,-99.99,,,-99.99,,2013-01-03 23:12:00,
2013-01-03 15:22:00,51.0,9.0,-100.00,ENE,62,12.0,20.0,18,-99.99,,,-99.99,,2013-01-03 23:22:00,
2013-01-03 15:32:00,50.0,8.0,-100.00,ENE,72,11.0,20.0,18,-99.99,,,-99.99,,2013-01-03 23:32:00,
2013-01-03 15:42:00,50.0,9.0,-100.00,ENE,73,13.0,20.0,19,-99.99,,,-99.99,,2013-01-03 23:42:00,
2013-01-03 15:52:00,50.0,11.0,-100.00,ENE,76,11.0,17.0,20,-99.99,,,-99.99,,2013-01-03 23:52:00,
2013-01-03 16:02:00,49.0,10.0,-100.00,ENE,75,11.0,17.0,20,-99.99,,,-99.99,,2013-01-04 00:02:00,
2013-01-03 16:12:00,49.0,11.0,-100.00,ENE,67,11.0,16.0,21,-99.99,,,-99.99,,2013-01-04 00:12:00,
2013-01-03 16:22:00,49.0,12.0,-100.00,ENE,63,10.0,19.0,22,-99.99,,,-99.99,,2013-01-04 00:22:00,
2013-01-03 16:32:00,48.0,11.0,-100.00,ENE,59,12.0,17.0,22,-99.99,,,-99.99,,2013-01-04 00:32:00,
2013-01-03 16:42:00,47.0,10.0,-100.00,NE,52,14.0,22.0,22,-99.99,,,-99.99,,2013-01-04 00:42:00,
2013-01-03 16:52:00,47.0,10.0,-100.00,NE,55,12.0,19.0,22,-99.99,,,-99.99,,2013-01-04 00:52:00,
2013-01-03 17:02:00,46.0,10.0,-100.00,NE,53,13.0,19.0,23,-99.99,,,-99.99,,2013-01-04 01:02:00,
2013-01-03 17:12:00,45.0,10.0,-100.00,NE,43,11.0,15.0,24,-99.99,,,-99.99,,2013-01-04 01:12:00,
2013-01-03 17:22:00,45.0,10.0,-100.00,NE,39,11.0,16.0,24,-99.99,,,-99.99,,2013-01-04 01:22:00,
2013-01-03 17:32:00,45.0,10.0,-100.00,NE,45,8.0,15.0,24,-99.99,,,-99.99,,2013-01-04 01:32:00,
2013-01-03 17:42:00,44.0,10.0,-100.00,NE,45,8.0,12.0,24,-99.99,,,-99.99,,2013-01-04 01:42:00,
2013-01-03 17:52:00,43.0,10.0,-100.00,North,6,4.0,9.0,25,-99.99,,,-99.99,,2013-01-04 01:52:00,
2013-01-03 18:02:00,44.0,9.0,-100.00,NNE,12,6.0,12.0,23,-99.99,,,-99.99,,2013-01-04 02:02:00,
2013-01-03 18:12:00,44.0,8.0,-100.00,NNE,16,6.0,9.0,22,-99.99,,,-99.99,,2013-01-04 02:12:00,
2013-01-03 18:22:00,44.0,7.0,-100.00,NNE,15,6.0,13.0,21,-99.99,,,-99.99,,2013-01-04 02:22:00,
2013-01-03 18:32:00,43.0,7.0,-100.00,NNW,341,2.0,7.0,22,-99.99,,,-99.99,,2013-01-04 02:32:00,
2013-01-03 18:42:00,43.0,7.0,-100.00,NNW,341,2.0,7.0,22,-99.99,,,-99.99,,2013-01-04 02:42:00,
2013-01-03 18:52:00,43.0,8.0,-100.00,NNW,342,2.0,5.0,23,-99.99,,,-99.99,,2013-01-04 02:52:00,
2013-01-03 19:02:00,43.0,6.0,-100.00,NNE,26,4.0,7.0,21,-99.99,,,-99.99,,2013-01-04 03:02:00,
2013-01-03 19:12:00,44.0,6.0,-100.00,NNE,25,4.0,10.0,20,-99.99,,,-99.99,,2013-01-04 03:12:00,
2013-01-03 19:22:00,43.0,5.0,-100.00,North,9,6.0,14.0,20,-99.99,,,-99.99,,2013-01-04 03:22:00,
2013-01-03 19:32:00,46.0,1.0,-100.00,NE,47,9.0,17.0,15,-99.99,,,-99.99,,2013-01-04 03:32:00,
2013-01-03 19:42:00,46.0,1.0,-100.00,NE,47,9.0,17.0,15,-99.99,,,-99.99,,2013-01-04 03:42:00,
2013-01-03 19:52:00,46.0,2.0,-100.00,NNE,26,9.0,14.0,16,-99.99,,,-99.99,,2013-01-04 03:52:00,
2013-01-03 20:02:00,44.0,3.0,-100.00,North,1,5.0,11.0,18,-99.99,,,-99.99,,2013-01-04 04:02:00,
2013-01-03 20:12:00,45.0,3.0,-100.00,North,355,4.0,12.0,17,-99.99,,,-99.99,,2013-01-04 04:12:00,
2013-01-03 20:22:00,42.0,5.0,-100.00,NNW,333,4.0,7.0,21,-99.99,,,-99.99,,2013-01-04 04:22:00,
2013-01-03 20:32:00,43.0,4.0,-100.00,NNW,327,6.0,10.0,19,-99.99,,,-99.99,,2013-01-04 04:32:00,
2013-01-03 20:42:00,43.0,4.0,-100.00,NNW,327,6.0,10.0,19,-99.99,,,-99.99,,2013-01-04 04:42:00,
2013-01-03 20:52:00,41.0,7.0,-100.00,NW,316,4.0,8.0,24,-99.99,,,-99.99,,2013-01-04 04:52:00,
2013-01-03 21:03:00,41.0,7.0,-100.00,NW,316,4.0,8.0,24,-99.99,,,-99.99,,2013-01-04 05:03:00,
2013-01-03 21:12:00,42.0,4.0,-100.00,WNW,299,4.0,9.0,20,-99.99,,,-99.99,,2013-01-04 05:12:00,
2013-01-03 21:22:00,40.0,5.0,-100.00,WNW,294,3.0,6.0,23,-99.99,,,-99.99,,2013-01-04 05:22:00,
2013-01-03 21:33:00,43.0,1.0,-100.00,North,6,4.0,9.0,17,-99.99,,,-99.99,,2013-01-04 05:33:00,
2013-01-03 21:42:00,43.0,1.0,-100.00,North,6,4.0,9.0,17,-99.99,,,-99.99,,2013-01-04 05:42:00,
2013-01-03 21:52:00,45.0,0.0,-100.00,NNE,16,5.0,10.0,15,-99.99,,,-99.99,,2013-01-04 05:52:00,
2013-01-03 22:02:00,45.0,0.0,-100.00,North,1,6.0,10.0,15,-99.99,,,-99.99,,2013-01-04 06:02:00,
2013-01-03 22:12:00,45.0,0.0,-100.00,North,8,6.0,12.0,15,-99.99,,,-99.99,,2013-01-04 06:12:00,
2013-01-03 22:22:00,44.0,1.0,-100.00,North,5,3.0,11.0,16,-99.99,,,-99.99,,2013-01-04 06:22:00,
2013-01-03 22:32:00,44.0,1.0,-100.00,North,357,4.0,9.0,16,-99.99,,,-99.99,,2013-01-04 06:32:00,
2013-01-03 22:42:00,45.0,0.0,-100.00,NNW,339,4.0,9.0,15,-99.99,,,-99.99,,2013-01-04 06:42:00,
2013-01-03 22:52:00,42.0,3.0,-100.00,NW,320,6.0,10.0,19,-99.99,,,-99.99,,2013-01-04 06:52:00,
2013-01-03 23:02:00,39.0,3.0,-100.00,NW,318,7.0,10.0,22,-99.99,,,-99.99,,2013-01-04 07:02:00,
2013-01-03 23:12:00,40.0,2.0,-100.00,NW,326,6.0,8.0,20,-99.99,,,-99.99,,2013-01-04 07:12:00,
2013-01-03 23:22:00,42.0,-1.0,-100.00,NNW,336,6.0,9.0,16,-99.99,,,-99.99,,2013-01-04 07:22:00,
2013-01-03 23:32:00,43.0,-1.0,-100.00,North,352,7.0,10.0,15,-99.99,,,-99.99,,2013-01-04 07:32:00,
2013-01-03 23:42:00,43.0,-1.0,-100.00,NNW,339,6.0,9.0,15,-99.99,,,-99.99,,2013-01-04 07:42:00,
2013-01-03 23:52:00,39.0,2.0,-100.00,NNW,347,5.0,8.0,21,-99.99,,,-99.99,,2013-01-04 07:52:00,